Time;durP1;ratioP1;P1;durP2;ratioP2;P2;SDS_P1;SDS_P2;PMS_P1;PMS_P2;Temp;Humidity;BMP_temperature;BMP_pressure;BME280_temperature;BME280_humidity;BME280_pressure;Samples;Min_cycle;Max_cycle;Signal;HPM_P1;HPM_P2
2023/02/15 00:00:39;;;;;;;45.88;33.33;;;;;;;;;;5053617;28;20193;-68
2023/02/15 00:03:07;;;;;;;52.53;32.70;;;;;;;;;;5054015;28;20195;-68
2023/02/15 00:05:34;;;;;;;46.47;31.88;;;;;;;;;;5053726;28;20226;-68
2023/02/15 00:08:01;;;;;;;41.60;31.05;;;;;;;;;;5053470;28;20191;-68
2023/02/15 00:10:29;;;;;;;43.22;31.35;;;;;;;;;;5053366;28;20196;-68
2023/02/15 00:12:56;;;;;;;48.58;33.22;;;;;;;;;;5053426;28;20195;-69
2023/02/15 00:15:23;;;;;;;46.75;33.67;;;;;;;;;;5053620;28;20192;-68
2023/02/15 00:17:50;;;;;;;42.67;31.95;;;;;;;;;;5053562;28;20222;-68
2023/02/15 00:20:19;;;;;;;45.45;31.30;;;;;;;;;;5053298;28;20189;-68
2023/02/15 00:22:46;;;;;;;50.35;32.10;;;;;;;;;;5053431;28;20189;-68
2023/02/15 00:25:13;;;;;;;47.22;31.98;;;;;;;;;;5053681;28;20193;-68
2023/02/15 00:27:40;;;;;;;45.67;31.75;;;;;;;;;;5053015;28;20201;-68
2023/02/15 00:30:08;;;;;;;48.60;33.22;;;;;;;;;;5053275;28;20673;-68
2023/02/15 00:32:35;;;;;;;47.28;33.13;;;;;;;;;;5052950;28;20284;-68
2023/02/15 00:35:03;;;;;;;49.72;31.80;;;;;;;;;;5052750;28;20642;-68
2023/02/15 00:37:31;;;;;;;48.22;32.15;;;;;;;;;;5053522;28;20215;-68
2023/02/15 00:39:58;;;;;;;40.13;30.27;;;;;;;;;;5052960;28;20654;-69
2023/02/15 00:42:25;;;;;;;43.85;30.98;;;;;;;;;;5053149;28;20637;-68
2023/02/15 00:44:53;;;;;;;45.25;32.08;;;;;;;;;;5052865;28;20642;-68
2023/02/15 00:47:20;;;;;;;45.47;32.17;;;;;;;;;;5052726;28;20657;-68
2023/02/15 00:49:47;;;;;;;41.85;29.10;;;;;;;;;;5052793;28;20197;-67
2023/02/15 00:52:14;;;;;;;49.45;30.33;;;;;;;;;;5053041;28;20192;-68
2023/02/15 00:54:43;;;;;;;38.95;29.50;;;;;;;;;;5053010;28;20196;-68
2023/02/15 00:57:10;;;;;;;46.30;30.65;;;;;;;;;;5053027;28;20232;-68
2023/02/15 00:59:37;;;;;;;41.05;29.25;;;;;;;;;;5053186;28;20188;-68
2023/02/15 01:02:04;;;;;;;42.65;30.27;;;;;;;;;;5052847;28;20584;-68
2023/02/15 01:04:31;;;;;;;42.33;31.20;;;;;;;;;;5052742;28;20570;-68
2023/02/15 01:06:59;;;;;;;42.53;29.38;;;;;;;;;;5052857;28;20545;-68
2023/02/15 01:09:26;;;;;;;51.53;31.98;;;;;;;;;;5053460;28;20189;-68
2023/02/15 01:11:54;;;;;;;42.80;29.05;;;;;;;;;;5052915;28;20188;-69
2023/02/15 01:14:22;;;;;;;44.72;32.10;;;;;;;;;;5052901;28;20192;-68
2023/02/15 01:16:49;;;;;;;56.53;32.75;;;;;;;;;;5052714;28;20658;-69
2023/02/15 01:19:16;;;;;;;46.80;31.15;;;;;;;;;;5052917;28;20201;-69
2023/02/15 01:21:43;;;;;;;44.55;33.63;;;;;;;;;;5056135;28;20665;-69
2023/02/15 01:24:13;;;;;;;51.88;33.97;;;;;;;;;;5056475;28;20193;-69
2023/02/15 01:26:40;;;;;;;45.95;33.45;;;;;;;;;;5056297;28;20217;-69
2023/02/15 01:29:08;;;;;;;47.75;31.30;;;;;;;;;;5056363;28;20195;-69
2023/02/15 01:31:35;;;;;;;48.30;32.53;;;;;;;;;;5055878;28;20197;-69
2023/02/15 01:34:03;;;;;;;47.88;33.53;;;;;;;;;;5056144;28;20196;-69
2023/02/15 01:36:31;;;;;;;45.72;32.70;;;;;;;;;;5055975;28;20209;-69
2023/02/15 01:38:58;;;;;;;51.08;33.70;;;;;;;;;;5056110;28;20660;-69
2023/02/15 01:41:26;;;;;;;39.67;30.30;;;;;;;;;;5055690;28;20194;-69
2023/02/15 01:43:55;;;;;;;44.83;31.15;;;;;;;;;;5056105;28;20193;-69
2023/02/15 01:46:27;;;;;;;41.72;30.33;;;;;;;;;;5055553;28;20206;-69
2023/02/15 01:48:58;;;;;;;46.42;31.38;;;;;;;;;;5056184;28;20182;-69
2023/02/15 01:51:27;;;;;;;43.00;31.70;;;;;;;;;;5056154;28;20183;-69
2023/02/15 01:53:57;;;;;;;45.40;31.17;;;;;;;;;;5055529;28;20656;-69
2023/02/15 01:56:26;;;;;;;46.95;32.08;;;;;;;;;;5055735;28;20216;-69
2023/02/15 01:58:55;;;;;;;41.80;31.55;;;;;;;;;;5055733;28;20194;-69
2023/02/15 02:01:22;;;;;;;38.97;30.45;;;;;;;;;;5055290;28;20719;-69
2023/02/15 02:03:58;;;;;;;43.90;30.38;;;;;;;;;;5055375;28;20200;-70
2023/02/15 02:06:27;;;;;;;45.25;29.15;;;;;;;;;;5055751;28;20580;-69
2023/02/15 02:08:54;;;;;;;42.72;30.83;;;;;;;;;;5055609;28;20195;-69
2023/02/15 02:11:21;;;;;;;47.90;32.13;;;;;;;;;;5055944;28;20197;-69
2023/02/15 02:13:49;;;;;;;48.10;30.20;;;;;;;;;;5055547;28;20223;-69
2023/02/15 02:16:20;;;;;;;46.85;33.25;;;;;;;;;;5054946;28;20191;-70
2023/02/15 02:18:54;;;;;;;53.85;31.63;;;;;;;;;;5055699;28;20193;-69
2023/02/15 02:21:36;;;;;;;48.30;31.27;;;;;;;;;;5055053;28;20275;-70
2023/02/15 02:24:14;;;;;;;47.30;30.80;;;;;;;;;;5051505;28;20196;-69
2023/02/15 02:27:08;;;;;;;42.83;31.23;;;;;;;;;;5054914;28;20202;-69
2023/02/15 02:29:56;;;;;;;45.92;31.98;;;;;;;;;;4997407;28;20187;-69
2023/02/15 02:32:38;;;;;;;46.38;30.02;;;;;;;;;;5054613;28;20276;-69
2023/02/15 02:35:11;;;;;;;41.25;29.90;;;;;;;;;;5054738;28;20192;-69
2023/02/15 02:37:44;;;;;;;45.63;32.25;;;;;;;;;;5055201;28;20205;-69
2023/02/15 02:40:14;;;;;;;46.80;30.55;;;;;;;;;;5055421;28;20220;-69
2023/02/15 02:42:43;;;;;;;44.25;31.40;;;;;;;;;;5054593;28;20192;-69
2023/02/15 02:45:11;;;;;;;50.13;30.10;;;;;;;;;;5054947;28;20199;-70
2023/02/15 02:47:41;;;;;;;45.80;29.92;;;;;;;;;;5054859;28;20200;-69
2023/02/15 02:50:11;;;;;;;52.00;32.00;;;;;;;;;;5054514;28;20180;-70
2023/02/15 02:52:41;;;;;;;45.05;28.67;;;;;;;;;;5054268;28;20662;-69
2023/02/15 02:55:11;;;;;;;43.70;29.42;;;;;;;;;;5054534;28;20195;-69
2023/02/15 02:57:41;;;;;;;50.08;32.45;;;;;;;;;;5054051;28;20216;-69
2023/02/15 03:00:08;;;;;;;42.63;30.52;;;;;;;;;;5054842;28;20214;-69
2023/02/15 03:02:39;;;;;;;41.22;27.77;;;;;;;;;;5054431;28;20197;-69
2023/02/15 03:05:08;;;;;;;49.47;30.83;;;;;;;;;;5054581;28;20257;-69
2023/02/15 03:07:37;;;;;;;45.75;32.42;;;;;;;;;;5054782;28;20196;-70
2023/02/15 03:10:07;;;;;;;47.72;31.35;;;;;;;;;;5054403;28;20198;-69
2023/02/15 03:12:36;;;;;;;58.17;30.05;;;;;;;;;;5054260;28;20576;-69
2023/02/15 03:15:04;;;;;;;46.72;29.40;;;;;;;;;;5054344;28;20199;-69
2023/02/15 03:17:33;;;;;;;46.63;30.02;;;;;;;;;;5054118;28;20226;-69
2023/02/15 03:20:03;;;;;;;43.63;30.63;;;;;;;;;;5054334;28;20201;-69
2023/02/15 03:22:32;;;;;;;45.47;28.55;;;;;;;;;;5054097;28;20180;-69
2023/02/15 03:25:03;;;;;;;46.33;28.38;;;;;;;;;;5053623;28;20199;-69
2023/02/15 03:27:33;;;;;;;44.47;30.33;;;;;;;;;;5053965;28;20204;-69
2023/02/15 03:30:00;;;;;;;48.85;27.95;;;;;;;;;;5053866;28;20197;-69
2023/02/15 03:32:29;;;;;;;41.83;28.17;;;;;;;;;;5053852;28;20189;-70
2023/02/15 03:34:57;;;;;;;41.53;28.70;;;;;;;;;;5054219;28;20515;-69
2023/02/15 03:37:27;;;;;;;53.15;30.10;;;;;;;;;;5053531;28;20565;-70
2023/02/15 03:41:08;;;;;;;42.40;27.33;;;;;;;;;;5054150;28;20640;-69
2023/02/15 03:42:46;;;;;;;44.78;29.20;;;;;;;;;;5052712;28;20184;-69
2023/02/15 03:45:17;;;;;;;52.78;33.47;;;;;;;;;;5053887;28;20198;-69
2023/02/15 03:47:46;;;;;;;51.22;27.92;;;;;;;;;;5053733;28;20192;-69
2023/02/15 03:52:59;;;;;;;45.88;29.98;;;;;;;;;;5052639;28;20179;-69
2023/02/15 03:55:26;;;;;;;41.20;28.77;;;;;;;;;;5054125;28;20204;-70
2023/02/15 04:03:31;;;;;;;49.40;29.65;;;;;;;;;;5053157;28;20527;-70
2023/02/15 04:05:58;;;;;;;52.08;31.58;;;;;;;;;;5053895;28;20255;-70
2023/02/15 04:10:51;;;;;;;47.25;30.17;;;;;;;;;;5053366;28;20200;-70
2023/02/15 04:11:11;;;;;;;46.97;31.05;;;;;;;;;;5053445;28;20593;-70
2023/02/15 04:13:40;;;;;;;55.47;31.27;;;;;;;;;;5053693;28;20191;-70
2023/02/15 04:16:06;;;;;;;49.67;30.63;;;;;;;;;;5053743;28;20187;-70
2023/02/15 04:26:52;;;;;;;48.20;30.13;;;;;;;;;;5053057;28;20238;-71
2023/02/15 04:29:21;;;;;;;48.63;29.92;;;;;;;;;;5053347;28;20538;-70
2023/02/15 04:31:48;;;;;;;50.35;32.45;;;;;;;;;;5053140;28;20188;-68
2023/02/15 04:34:15;;;;;;;52.38;34.10;;;;;;;;;;5052924;28;20200;-67
2023/02/15 04:36:43;;;;;;;57.45;30.40;;;;;;;;;;5053030;28;20635;-67
2023/02/15 04:39:10;;;;;;;55.00;34.00;;;;;;;;;;5052524;28;20210;-68
2023/02/15 04:41:37;;;;;;;43.65;29.63;;;;;;;;;;5053056;28;20196;-65
2023/02/15 04:44:05;;;;;;;55.65;32.55;;;;;;;;;;5053028;28;20218;-65
2023/02/15 04:46:33;;;;;;;58.97;32.00;;;;;;;;;;5053027;28;20197;-66
2023/02/15 04:49:01;;;;;;;50.70;29.95;;;;;;;;;;5052588;28;20201;-67
2023/02/15 04:51:28;;;;;;;49.45;31.50;;;;;;;;;;5053092;28;20202;-66
2023/02/15 04:53:56;;;;;;;46.63;31.15;;;;;;;;;;5053052;28;20199;-66
2023/02/15 04:56:23;;;;;;;46.35;31.42;;;;;;;;;;5055008;28;20187;-67
2023/02/15 04:58:51;;;;;;;45.60;29.95;;;;;;;;;;5055149;28;20310;-67
2023/02/15 05:01:18;;;;;;;49.75;31.30;;;;;;;;;;5056061;28;20188;-69
2023/02/15 05:03:47;;;;;;;46.85;30.13;;;;;;;;;;5055732;28;20195;-68
2023/02/15 05:06:14;;;;;;;48.85;30.10;;;;;;;;;;5055766;28;20189;-66
2023/02/15 05:08:41;;;;;;;46.22;29.70;;;;;;;;;;5056146;28;20540;-66
2023/02/15 05:11:09;;;;;;;41.33;28.73;;;;;;;;;;5056205;28;20279;-67
2023/02/15 05:13:36;;;;;;;42.53;27.48;;;;;;;;;;5055796;28;20658;-66
2023/02/15 05:16:03;;;;;;;49.42;30.27;;;;;;;;;;5055939;28;20219;-67
2023/02/15 05:18:30;;;;;;;41.70;25.80;;;;;;;;;;5055671;28;20212;-67
2023/02/15 05:20:59;;;;;;;40.00;27.48;;;;;;;;;;5056118;28;20549;-66
2023/02/15 05:23:26;;;;;;;39.33;27.65;;;;;;;;;;5055867;28;20195;-66
2023/02/15 05:28:39;;;;;;;47.20;28.67;;;;;;;;;;5055960;28;20171;-67
2023/02/15 05:31:07;;;;;;;44.30;27.90;;;;;;;;;;5055945;28;20410;-66
2023/02/15 05:33:34;;;;;;;46.25;29.40;;;;;;;;;;5064544;28;20197;-66
2023/02/15 05:36:03;;;;;;;43.25;27.83;;;;;;;;;;5075534;28;20646;-67
2023/02/15 05:38:30;;;;;;;44.08;28.63;;;;;;;;;;5076053;28;20218;-66
2023/02/15 05:40:58;;;;;;;42.35;28.95;;;;;;;;;;5075734;28;20205;-66
2023/02/15 05:43:25;;;;;;;39.60;27.13;;;;;;;;;;5075970;28;20196;-66
2023/02/15 05:45:53;;;;;;;50.03;28.58;;;;;;;;;;5075879;28;20197;-66
2023/02/15 05:48:21;;;;;;;44.85;29.55;;;;;;;;;;5075863;28;20195;-66
2023/02/15 05:50:48;;;;;;;49.17;28.88;;;;;;;;;;5075757;28;20196;-66
2023/02/15 05:53:17;;;;;;;40.58;26.50;;;;;;;;;;5075779;28;20186;-66
2023/02/15 05:55:44;;;;;;;46.33;28.05;;;;;;;;;;5075624;28;20190;-66
2023/02/15 05:58:11;;;;;;;47.17;28.70;;;;;;;;;;5076130;28;20221;-66
2023/02/15 06:00:39;;;;;;;42.60;28.40;;;;;;;;;;5075440;28;20286;-66
2023/02/15 06:03:06;;;;;;;48.70;28.60;;;;;;;;;;5063390;28;20522;-67
2023/02/15 06:05:33;;;;;;;43.78;28.85;;;;;;;;;;5052662;28;20581;-66
2023/02/15 06:08:00;;;;;;;50.38;28.50;;;;;;;;;;5054015;28;20525;-66
2023/02/15 06:10:29;;;;;;;48.47;28.15;;;;;;;;;;5055092;28;20196;-65
2023/02/15 06:12:56;;;;;;;40.17;28.75;;;;;;;;;;5055272;28;20563;-65
2023/02/15 06:15:23;;;;;;;41.80;28.05;;;;;;;;;;5055409;28;20521;-65
2023/02/15 06:17:50;;;;;;;44.03;27.23;;;;;;;;;;5055357;28;20560;-65
2023/02/15 06:20:17;;;;;;;44.20;27.98;;;;;;;;;;5055702;28;20549;-65
2023/02/15 06:22:44;;;;;;;51.03;28.88;;;;;;;;;;5055249;28;20192;-65
2023/02/15 06:25:12;;;;;;;47.80;28.25;;;;;;;;;;5055108;28;20194;-65
2023/02/15 06:27:42;;;;;;;49.42;30.55;;;;;;;;;;5055302;28;20714;-66
2023/02/15 06:30:10;;;;;;;48.00;30.10;;;;;;;;;;5055193;28;20551;-67
2023/02/15 06:32:38;;;;;;;53.13;31.92;;;;;;;;;;5055250;28;20224;-66
2023/02/15 06:35:05;;;;;;;45.90;28.92;;;;;;;;;;5055244;28;20191;-66
2023/02/15 06:37:32;;;;;;;44.75;28.55;;;;;;;;;;5055041;28;20539;-65
2023/02/15 06:39:59;;;;;;;47.20;29.95;;;;;;;;;;5055270;28;20197;-66
2023/02/15 06:42:27;;;;;;;43.05;27.42;;;;;;;;;;5054953;28;20192;-66
2023/02/15 06:44:55;;;;;;;41.13;26.55;;;;;;;;;;5054883;28;20193;-66
2023/02/15 06:47:22;;;;;;;48.72;29.52;;;;;;;;;;5054555;28;20198;-66
2023/02/15 06:49:49;;;;;;;51.38;30.98;;;;;;;;;;5055141;28;20217;-66
2023/02/15 06:52:17;;;;;;;44.22;29.38;;;;;;;;;;5054671;28;20197;-66
2023/02/15 06:54:44;;;;;;;43.13;28.55;;;;;;;;;;5054726;28;20192;-66
2023/02/15 06:57:11;;;;;;;40.72;26.35;;;;;;;;;;5054268;28;20197;-66
2023/02/15 06:59:38;;;;;;;39.58;26.92;;;;;;;;;;5054237;28;20213;-66
2023/02/15 07:02:07;;;;;;;43.47;28.17;;;;;;;;;;5054423;28;20661;-66
2023/02/15 07:04:34;;;;;;;39.90;25.23;;;;;;;;;;5054789;28;20229;-66
2023/02/15 07:07:01;;;;;;;43.17;27.48;;;;;;;;;;5054829;28;20193;-66
2023/02/15 07:09:28;;;;;;;41.08;27.42;;;;;;;;;;5054389;28;20195;-65
2023/02/15 07:14:42;;;;;;;38.55;25.40;;;;;;;;;;5054712;28;20667;-66
2023/02/15 07:17:10;;;;;;;41.90;26.42;;;;;;;;;;5053303;28;20641;-66
2023/02/15 07:19:38;;;;;;;43.67;28.85;;;;;;;;;;5054095;28;20217;-66
2023/02/15 07:22:05;;;;;;;46.05;27.77;;;;;;;;;;5053949;28;20205;-66
2023/02/15 07:24:32;;;;;;;47.65;29.58;;;;;;;;;;5053828;28;20247;-66
2023/02/15 07:26:59;;;;;;;39.85;26.73;;;;;;;;;;5053669;28;20205;-66
2023/02/15 07:29:27;;;;;;;42.90;27.38;;;;;;;;;;5054099;28;20541;-66
2023/02/15 07:31:54;;;;;;;38.72;26.52;;;;;;;;;;5054129;28;20195;-66
2023/02/15 07:34:23;;;;;;;43.63;28.67;;;;;;;;;;5053793;28;20242;-66
2023/02/15 07:36:53;;;;;;;42.42;27.80;;;;;;;;;;5053569;28;20199;-66
2023/02/15 07:39:20;;;;;;;39.90;28.77;;;;;;;;;;5053943;28;20238;-66
2023/02/15 07:41:48;;;;;;;47.35;28.23;;;;;;;;;;5053393;28;20198;-65
2023/02/15 07:44:15;;;;;;;46.50;28.48;;;;;;;;;;5053479;28;20198;-66
2023/02/15 07:46:43;;;;;;;47.05;29.33;;;;;;;;;;5054191;28;20196;-66
2023/02/15 07:49:10;;;;;;;45.70;29.08;;;;;;;;;;5053833;28;20201;-65
2023/02/15 07:51:40;;;;;;;43.10;29.15;;;;;;;;;;5053333;28;20238;-66
2023/02/15 07:54:07;;;;;;;47.33;28.42;;;;;;;;;;5054088;28;20716;-66
2023/02/15 07:56:34;;;;;;;50.35;27.30;;;;;;;;;;5053490;28;20195;-66
2023/02/15 07:59:03;;;;;;;41.67;25.63;;;;;;;;;;5053602;28;20238;-66
2023/02/15 08:01:32;;;;;;;41.80;26.83;;;;;;;;;;5053495;28;20195;-66
2023/02/15 08:03:59;;;;;;;38.85;26.27;;;;;;;;;;5053130;28;20226;-66
2023/02/15 08:06:27;;;;;;;33.90;25.83;;;;;;;;;;5054056;28;20196;-66
2023/02/15 08:08:56;;;;;;;42.22;26.95;;;;;;;;;;5053181;28;20205;-66
2023/02/15 08:11:32;;;;;;;40.05;26.05;;;;;;;;;;5053842;28;20207;-65
2023/02/15 08:14:00;;;;;;;34.63;25.88;;;;;;;;;;5053494;28;20191;-66
2023/02/15 08:16:28;;;;;;;39.88;25.23;;;;;;;;;;5053650;28;20199;-65
2023/02/15 08:18:56;;;;;;;44.10;25.95;;;;;;;;;;5053379;28;20259;-66
2023/02/15 08:21:23;;;;;;;32.22;23.40;;;;;;;;;;5053250;28;20203;-66
2023/02/15 08:23:51;;;;;;;37.03;25.10;;;;;;;;;;5053367;28;20203;-65
2023/02/15 08:26:19;;;;;;;37.72;26.40;;;;;;;;;;5053162;28;20195;-66
2023/02/15 08:28:47;;;;;;;43.30;27.38;;;;;;;;;;5054190;28;20197;-65
2023/02/15 08:31:14;;;;;;;38.13;25.20;;;;;;;;;;5057395;28;20214;-66
2023/02/15 08:33:43;;;;;;;36.70;25.20;;;;;;;;;;5057218;28;20192;-65
2023/02/15 08:36:11;;;;;;;42.78;27.13;;;;;;;;;;5057356;28;20219;-65
2023/02/15 08:38:39;;;;;;;38.08;27.40;;;;;;;;;;5056835;28;20208;-65
2023/02/15 08:41:13;;;;;;;38.72;24.92;;;;;;;;;;5057192;28;20187;-66
2023/02/15 08:43:42;;;;;;;42.60;27.55;;;;;;;;;;5057085;28;20193;-65
2023/02/15 08:46:10;;;;;;;41.33;27.25;;;;;;;;;;5057290;28;20611;-65
2023/02/15 08:48:37;;;;;;;47.40;26.45;;;;;;;;;;5057293;28;20290;-66
2023/02/15 08:51:10;;;;;;;39.58;24.75;;;;;;;;;;5057102;28;20273;-65
2023/02/15 08:53:37;;;;;;;46.65;26.45;;;;;;;;;;5056708;28;20188;-65
2023/02/15 08:56:05;;;;;;;34.95;25.50;;;;;;;;;;5056569;28;20203;-66
2023/02/15 08:58:32;;;;;;;40.33;25.15;;;;;;;;;;5056742;28;20201;-65
2023/02/15 09:01:01;;;;;;;39.95;25.92;;;;;;;;;;5056870;28;20220;-66
2023/02/15 09:03:29;;;;;;;43.45;26.45;;;;;;;;;;5056526;28;20205;-65
2023/02/15 09:05:59;;;;;;;40.42;27.05;;;;;;;;;;5056999;28;20255;-65
2023/02/15 09:08:27;;;;;;;33.13;24.92;;;;;;;;;;5056390;28;20247;-67
2023/02/15 09:10:54;;;;;;;40.17;27.17;;;;;;;;;;5056979;28;20252;-65
2023/02/15 09:13:21;;;;;;;34.53;25.05;;;;;;;;;;5056346;28;20199;-66
2023/02/15 09:15:48;;;;;;;43.20;25.38;;;;;;;;;;5056618;28;20200;-66
2023/02/15 09:18:17;;;;;;;32.63;24.08;;;;;;;;;;5056619;28;20202;-66
2023/02/15 09:20:45;;;;;;;42.58;27.20;;;;;;;;;;5056515;28;20308;-65
2023/02/15 09:23:12;;;;;;;45.22;27.77;;;;;;;;;;5056116;28;20193;-66
2023/02/15 09:25:39;;;;;;;39.47;25.45;;;;;;;;;;5056398;28;20639;-65
2023/02/15 09:28:06;;;;;;;34.47;25.15;;;;;;;;;;5056318;28;20293;-65
2023/02/15 09:30:34;;;;;;;39.03;25.25;;;;;;;;;;5056354;28;20196;-66
2023/02/15 09:33:01;;;;;;;37.28;26.42;;;;;;;;;;5056323;28;20195;-65
2023/02/15 09:35:30;;;;;;;39.67;26.10;;;;;;;;;;5055891;28;20205;-65
2023/02/15 09:37:57;;;;;;;41.95;30.05;;;;;;;;;;5056532;28;20192;-66
2023/02/15 09:40:24;;;;;;;36.90;25.02;;;;;;;;;;5055215;28;20216;-65
2023/02/15 09:43:08;;;;;;;44.85;27.17;;;;;;;;;;5055712;28;20192;-66
2023/02/15 09:45:47;;;;;;;37.22;25.48;;;;;;;;;;5056471;28;20559;-65
2023/02/15 09:48:20;;;;;;;42.67;25.27;;;;;;;;;;5056307;28;20185;-66
2023/02/15 09:50:57;;;;;;;47.85;25.20;;;;;;;;;;5056547;28;20191;-65
2023/02/15 09:53:31;;;;;;;36.97;26.50;;;;;;;;;;5056087;28;20182;-65
2023/02/15 09:56:01;;;;;;;35.97;24.52;;;;;;;;;;5056035;28;20531;-65
2023/02/15 09:58:33;;;;;;;35.33;24.85;;;;;;;;;;5055945;28;20193;-66
2023/02/15 10:01:03;;;;;;;36.28;25.88;;;;;;;;;;5056649;28;20269;-66
2023/02/15 10:03:38;;;;;;;36.33;25.75;;;;;;;;;;5055472;28;20189;-65
2023/02/15 10:06:15;;;;;;;39.05;26.25;;;;;;;;;;5055933;28;20228;-65
2023/02/15 10:08:51;;;;;;;37.55;25.13;;;;;;;;;;5055978;28;20289;-65
2023/02/15 10:11:41;;;;;;;39.85;24.35;;;;;;;;;;5055882;28;20182;-65
2023/02/15 10:14:15;;;;;;;34.15;25.52;;;;;;;;;;5055165;28;20193;-66
2023/02/15 10:16:47;;;;;;;39.60;24.33;;;;;;;;;;5055414;28;20188;-65
2023/02/15 10:19:18;;;;;;;40.78;26.55;;;;;;;;;;5055391;28;20215;-66
2023/02/15 10:21:54;;;;;;;38.15;25.27;;;;;;;;;;5055652;28;20193;-65
2023/02/15 10:24:28;;;;;;;37.55;25.10;;;;;;;;;;5055277;28;20235;-66
2023/02/15 10:26:57;;;;;;;36.65;25.75;;;;;;;;;;5055665;28;20650;-66
2023/02/15 10:29:29;;;;;;;35.53;23.40;;;;;;;;;;5054850;28;20198;-66
2023/02/15 10:32:00;;;;;;;32.05;23.30;;;;;;;;;;5054974;28;20181;-66
2023/02/15 10:34:30;;;;;;;38.58;26.50;;;;;;;;;;5055306;28;20208;-66
2023/02/15 10:37:06;;;;;;;34.08;23.70;;;;;;;;;;5055370;28;20177;-65
2023/02/15 10:39:39;;;;;;;36.95;24.55;;;;;;;;;;5054919;28;20213;-66
2023/02/15 10:42:11;;;;;;;29.80;22.80;;;;;;;;;;5055529;28;20185;-66
2023/02/15 10:44:46;;;;;;;40.42;25.08;;;;;;;;;;5054843;28;20182;-65
2023/02/15 10:47:27;;;;;;;34.53;22.00;;;;;;;;;;5054956;28;20197;-65
2023/02/15 10:50:09;;;;;;;34.03;23.70;;;;;;;;;;5055033;28;20196;-65
2023/02/15 10:52:42;;;;;;;35.58;24.98;;;;;;;;;;5034689;28;20199;-65
2023/02/15 10:55:13;;;;;;;38.72;24.05;;;;;;;;;;5054714;28;20189;-65
2023/02/15 10:57:45;;;;;;;35.90;23.13;;;;;;;;;;5054818;28;20179;-65
2023/02/15 11:00:15;;;;;;;37.10;23.17;;;;;;;;;;5054650;28;20547;-65
2023/02/15 11:02:51;;;;;;;34.00;22.38;;;;;;;;;;5055212;28;20193;-65
2023/02/15 11:05:27;;;;;;;34.90;23.15;;;;;;;;;;5054460;28;20218;-65
2023/02/15 11:07:59;;;;;;;31.60;22.73;;;;;;;;;;5054857;28;20183;-65
2023/02/15 11:10:29;;;;;;;38.75;24.75;;;;;;;;;;5054114;28;20179;-65
2023/02/15 11:12:58;;;;;;;34.72;23.70;;;;;;;;;;5055016;28;20183;-66
2023/02/15 11:15:28;;;;;;;29.75;21.92;;;;;;;;;;5054386;28;20773;-65
2023/02/15 11:17:59;;;;;;;33.45;22.00;;;;;;;;;;5053978;28;20199;-66
2023/02/15 11:20:29;;;;;;;34.28;22.88;;;;;;;;;;5054202;28;20217;-66
2023/02/15 11:22:57;;;;;;;37.95;22.05;;;;;;;;;;5054200;28;20624;-66
2023/02/15 11:25:29;;;;;;;36.13;23.33;;;;;;;;;;5053860;28;20632;-66
2023/02/15 11:27:57;;;;;;;38.33;23.67;;;;;;;;;;5054177;28;20182;-65
2023/02/15 11:30:25;;;;;;;39.45;23.55;;;;;;;;;;5054029;28;20443;-65
2023/02/15 11:32:54;;;;;;;35.97;24.45;;;;;;;;;;5054068;28;20190;-66
2023/02/15 11:35:24;;;;;;;37.00;22.07;;;;;;;;;;5053623;28;20201;-66
2023/02/15 11:37:53;;;;;;;31.87;22.10;;;;;;;;;;5053934;28;20945;-66
2023/02/15 11:40:24;;;;;;;36.70;23.02;;;;;;;;;;5053788;28;20483;-66
2023/02/15 11:42:53;;;;;;;36.90;22.53;;;;;;;;;;5053898;28;20632;-66
2023/02/15 11:45:24;;;;;;;32.17;21.02;;;;;;;;;;5053803;28;20429;-65
2023/02/15 11:47:51;;;;;;;34.77;22.60;;;;;;;;;;5053924;28;20186;-66
2023/02/15 11:50:22;;;;;;;35.72;21.85;;;;;;;;;;5054430;28;20433;-66
2023/02/15 11:52:49;;;;;;;33.93;24.43;;;;;;;;;;5054561;28;20265;-66
2023/02/15 11:55:20;;;;;;;32.90;23.03;;;;;;;;;;5053604;28;20443;-66
2023/02/15 11:57:52;;;;;;;37.43;24.90;;;;;;;;;;5053385;28;20428;-65
2023/02/15 12:00:26;;;;;;;37.80;24.47;;;;;;;;;;5053744;28;20515;-66
2023/02/15 12:02:55;;;;;;;36.08;24.55;;;;;;;;;;5054271;28;20422;-66
2023/02/15 12:05:23;;;;;;;34.37;21.50;;;;;;;;;;5052984;28;20225;-66
2023/02/15 12:07:53;;;;;;;31.80;22.33;;;;;;;;;;5053486;28;20441;-66
2023/02/15 12:10:24;;;;;;;33.37;22.87;;;;;;;;;;5053541;28;20777;-66
2023/02/15 12:13:09;;;;;;;35.23;21.93;;;;;;;;;;5053289;28;20434;-66
2023/02/15 12:15:37;;;;;;;32.17;21.37;;;;;;;;;;5053680;28;20438;-65
2023/02/15 12:18:05;;;;;;;30.43;21.27;;;;;;;;;;5053499;28;20444;-66
2023/02/15 12:20:34;;;;;;;34.35;20.88;;;;;;;;;;5052828;28;20512;-66
2023/02/15 12:23:03;;;;;;;35.40;22.67;;;;;;;;;;5053465;28;20282;-65
2023/02/15 12:25:34;;;;;;;30.20;20.40;;;;;;;;;;5053222;28;20438;-66
2023/02/15 12:28:04;;;;;;;33.00;21.33;;;;;;;;;;5053292;28;20497;-66
2023/02/15 12:30:33;;;;;;;36.07;23.77;;;;;;;;;;5053584;28;20439;-66
2023/02/15 12:33:05;;;;;;;35.83;24.63;;;;;;;;;;5052851;28;20926;-66
2023/02/15 12:35:33;;;;;;;32.80;22.10;;;;;;;;;;5053474;28;20447;-66
2023/02/15 12:38:02;;;;;;;40.87;24.50;;;;;;;;;;5053208;28;20496;-65
2023/02/15 12:40:30;;;;;;;35.93;23.00;;;;;;;;;;5052753;28;21033;-66
2023/02/15 12:42:58;;;;;;;39.53;23.70;;;;;;;;;;5053103;28;20979;-65
2023/02/15 12:45:28;;;;;;;33.90;22.07;;;;;;;;;;5053074;28;20916;-66
2023/02/15 12:48:10;;;;;;;32.80;22.67;;;;;;;;;;5053047;28;20517;-65
2023/02/15 12:50:37;;;;;;;34.60;21.27;;;;;;;;;;5052865;28;20918;-66
2023/02/15 12:53:08;;;;;;;31.70;19.97;;;;;;;;;;5052984;28;20458;-66
2023/02/15 12:55:36;;;;;;;31.17;21.53;;;;;;;;;;5052628;28;20442;-65
2023/02/15 12:58:07;;;;;;;31.10;22.13;;;;;;;;;;5052986;28;20498;-66
2023/02/15 13:00:36;;;;;;;32.50;21.87;;;;;;;;;;5052533;28;20524;-66
2023/02/15 13:03:04;;;;;;;31.40;21.77;;;;;;;;;;5053671;28;20557;-65
2023/02/15 13:05:33;;;;;;;36.40;21.37;;;;;;;;;;5052692;28;20476;-66
2023/02/15 13:08:02;;;;;;;34.07;22.03;;;;;;;;;;5053401;28;20476;-66
2023/02/15 13:10:30;;;;;;;31.37;21.40;;;;;;;;;;5052725;28;20442;-65
2023/02/15 13:12:58;;;;;;;36.80;20.77;;;;;;;;;;5052806;28;20442;-66
2023/02/15 13:15:27;;;;;;;31.60;19.97;;;;;;;;;;5052708;28;20988;-66
2023/02/15 13:17:56;;;;;;;29.73;20.10;;;;;;;;;;5056192;28;20910;-66
2023/02/15 13:20:24;;;;;;;31.57;20.57;;;;;;;;;;5056754;28;20474;-65
2023/02/15 13:22:54;;;;;;;32.03;20.93;;;;;;;;;;5056179;28;20439;-66
2023/02/15 13:25:22;;;;;;;30.10;20.77;;;;;;;;;;5056110;28;20439;-66
2023/02/15 13:27:52;;;;;;;31.50;19.90;;;;;;;;;;5056387;28;20445;-66
2023/02/15 13:30:24;;;;;;;31.90;20.63;;;;;;;;;;5056247;28;20449;-66
2023/02/15 13:32:53;;;;;;;35.13;22.50;;;;;;;;;;5056378;28;20421;-65
2023/02/15 13:35:22;;;;;;;34.17;22.27;;;;;;;;;;5055875;28;20444;-67
2023/02/15 13:38:01;;;;;;;30.30;21.10;;;;;;;;;;5056572;28;20529;-66
2023/02/15 13:40:32;;;;;;;38.43;21.80;;;;;;;;;;5056589;28;20467;-66
2023/02/15 13:43:02;;;;;;;33.27;20.60;;;;;;;;;;5055762;28;20425;-66
2023/02/15 13:45:34;;;;;;;29.97;20.17;;;;;;;;;;5055684;28;20434;-66
2023/02/15 13:48:06;;;;;;;32.93;22.33;;;;;;;;;;5056413;28;20424;-66
2023/02/15 13:50:50;;;;;;;31.63;21.70;;;;;;;;;;5055996;28;20899;-67
2023/02/15 13:53:22;;;;;;;31.73;21.00;;;;;;;;;;5055958;28;20425;-72
2023/02/15 13:55:52;;;;;;;32.13;19.93;;;;;;;;;;5055511;28;20506;-69
2023/02/15 13:58:26;;;;;;;28.17;21.67;;;;;;;;;;5055723;28;20479;-68
2023/02/15 14:00:59;;;;;;;38.30;23.43;;;;;;;;;;5055328;28;20910;-69
2023/02/15 14:03:43;;;;;;;30.90;20.53;;;;;;;;;;5055841;28;20443;-66
2023/02/15 14:06:21;;;;;;;31.93;20.97;;;;;;;;;;5055848;28;20501;-69
2023/02/15 14:08:53;;;;;;;29.50;21.13;;;;;;;;;;5055393;28;20479;-67
2023/02/15 14:11:23;;;;;;;30.53;21.20;;;;;;;;;;5056121;28;20514;-68
2023/02/15 14:14:00;;;;;;;29.53;21.33;;;;;;;;;;5054804;28;20526;-70
2023/02/15 14:16:33;;;;;;;30.50;20.37;;;;;;;;;;5055476;28;20439;-68
2023/02/15 14:19:03;;;;;;;29.67;19.97;;;;;;;;;;5055795;28;20423;-66
2023/02/15 14:21:33;;;;;;;31.60;20.97;;;;;;;;;;5055473;28;20474;-67
2023/02/15 14:24:07;;;;;;;30.63;20.43;;;;;;;;;;5052665;28;20452;-66
2023/02/15 14:26:41;;;;;;;36.73;21.00;;;;;;;;;;5055283;28;20444;-64
2023/02/15 14:29:12;;;;;;;33.90;21.30;;;;;;;;;;5055372;28;20419;-65
2023/02/15 14:31:42;;;;;;;31.10;22.23;;;;;;;;;;5054904;28;20515;-69
2023/02/15 14:34:16;;;;;;;37.63;21.77;;;;;;;;;;5055234;28;20469;-65
2023/02/15 14:36:45;;;;;;;32.90;20.93;;;;;;;;;;5054955;28;20452;-66
2023/02/15 14:42:13;;;;;;;36.37;20.17;;;;;;;;;;5054571;28;20460;-66
2023/02/15 14:44:44;;;;;;;33.10;20.97;;;;;;;;;;5054948;28;20555;-66
2023/02/15 14:47:13;;;;;;;34.87;22.87;;;;;;;;;;5054637;28;20431;-66
2023/02/15 14:49:41;;;;;;;27.90;20.40;;;;;;;;;;5054526;28;20434;-66
2023/02/15 14:52:11;;;;;;;30.80;21.60;;;;;;;;;;5054391;28;20468;-65
2023/02/15 14:54:58;;;;;;;32.87;19.90;;;;;;;;;;5041782;28;20920;-64